sensor_id;sensor_type;location;lat;lon;timestamp;P1;durP1;ratioP1;P2;durP2;ratioP2
7162;SDS011;3623;47.098;15.446;2023-07-29T00:01:58;4.00;;;3.70;;
7162;SDS011;3623;47.098;15.446;2023-07-29T00:04:26;4.23;;;3.93;;
7162;SDS011;3623;47.098;15.446;2023-07-29T00:06:53;4.30;;;3.87;;
7162;SDS011;3623;47.098;15.446;2023-07-29T00:09:21;4.67;;;3.23;;
7162;SDS011;3623;47.098;15.446;2023-07-29T00:11:48;3.80;;;3.50;;
7162;SDS011;3623;47.098;15.446;2023-07-29T00:14:16;4.23;;;3.93;;
7162;SDS011;3623;47.098;15.446;2023-07-29T00:16:44;3.60;;;3.30;;
7162;SDS011;3623;47.098;15.446;2023-07-29T00:19:11;3.73;;;3.43;;
7162;SDS011;3623;47.098;15.446;2023-07-29T00:21:38;4.60;;;4.20;;
7162;SDS011;3623;47.098;15.446;2023-07-29T00:24:06;4.20;;;3.33;;
7162;SDS011;3623;47.098;15.446;2023-07-29T00:26:34;3.50;;;3.20;;
7162;SDS011;3623;47.098;15.446;2023-07-29T00:29:02;4.50;;;4.10;;
7162;SDS011;3623;47.098;15.446;2023-07-29T00:31:29;6.50;;;4.67;;
7162;SDS011;3623;47.098;15.446;2023-07-29T00:33:56;4.90;;;4.17;;
7162;SDS011;3623;47.098;15.446;2023-07-29T00:36:23;3.40;;;3.20;;
7162;SDS011;3623;47.098;15.446;2023-07-29T00:38:50;4.20;;;3.80;;
7162;SDS011;3623;47.098;15.446;2023-07-29T00:41:19;4.80;;;3.30;;
7162;SDS011;3623;47.098;15.446;2023-07-29T00:43:50;4.77;;;4.37;;
7162;SDS011;3623;47.098;15.446;2023-07-29T00:46:17;3.97;;;3.50;;
7162;SDS011;3623;47.098;15.446;2023-07-29T00:48:46;3.50;;;3.20;;
7162;SDS011;3623;47.098;15.446;2023-07-29T00:51:13;4.63;;;4.23;;
7162;SDS011;3623;47.098;15.446;2023-07-29T00:53:41;3.80;;;3.53;;
7162;SDS011;3623;47.098;15.446;2023-07-29T00:56:08;4.03;;;2.93;;
7162;SDS011;3623;47.098;15.446;2023-07-29T00:58:35;3.97;;;3.67;;
7162;SDS011;3623;47.098;15.446;2023-07-29T01:01:04;3.70;;;3.30;;
7162;SDS011;3623;47.098;15.446;2023-07-29T01:03:31;3.50;;;3.20;;
7162;SDS011;3623;47.098;15.446;2023-07-29T01:06:01;5.27;;;3.50;;
7162;SDS011;3623;47.098;15.446;2023-07-29T01:08:38;4.47;;;4.10;;
7162;SDS011;3623;47.098;15.446;2023-07-29T01:11:16;3.63;;;3.43;;
7162;SDS011;3623;47.098;15.446;2023-07-29T01:13:58;3.53;;;3.30;;
7162;SDS011;3623;47.098;15.446;2023-07-29T01:16:33;3.70;;;3.50;;
7162;SDS011;3623;47.098;15.446;2023-07-29T01:19:06;4.10;;;3.40;;
7162;SDS011;3623;47.098;15.446;2023-07-29T01:21:35;4.43;;;4.13;;
7162;SDS011;3623;47.098;15.446;2023-07-29T01:24:05;4.73;;;4.20;;
7162;SDS011;3623;47.098;15.446;2023-07-29T01:26:32;3.83;;;3.63;;
7162;SDS011;3623;47.098;15.446;2023-07-29T01:28:59;4.40;;;4.10;;
7162;SDS011;3623;47.098;15.446;2023-07-29T01:31:27;4.47;;;4.13;;
7162;SDS011;3623;47.098;15.446;2023-07-29T01:34:02;5.60;;;4.20;;
7162;SDS011;3623;47.098;15.446;2023-07-29T01:36:36;4.60;;;4.23;;
7162;SDS011;3623;47.098;15.446;2023-07-29T01:39:09;8.57;;;4.90;;
7162;SDS011;3623;47.098;15.446;2023-07-29T01:41:37;3.60;;;3.33;;
7162;SDS011;3623;47.098;15.446;2023-07-29T01:44:06;4.70;;;4.20;;
7162;SDS011;3623;47.098;15.446;2023-07-29T01:46:33;5.17;;;4.67;;
7162;SDS011;3623;47.098;15.446;2023-07-29T01:49:00;3.80;;;3.50;;
7162;SDS011;3623;47.098;15.446;2023-07-29T01:51:28;4.17;;;3.77;;
7162;SDS011;3623;47.098;15.446;2023-07-29T01:53:55;4.67;;;3.70;;
7162;SDS011;3623;47.098;15.446;2023-07-29T01:56:25;5.13;;;4.63;;
7162;SDS011;3623;47.098;15.446;2023-07-29T01:58:52;4.00;;;3.70;;
7162;SDS011;3623;47.098;15.446;2023-07-29T02:01:19;5.03;;;4.13;;
7162;SDS011;3623;47.098;15.446;2023-07-29T02:03:47;4.50;;;4.10;;
7162;SDS011;3623;47.098;15.446;2023-07-29T02:06:19;8.30;;;4.33;;
7162;SDS011;3623;47.098;15.446;2023-07-29T02:08:47;4.53;;;3.90;;
7162;SDS011;3623;47.098;15.446;2023-07-29T02:11:14;4.77;;;4.33;;
7162;SDS011;3623;47.098;15.446;2023-07-29T02:13:42;5.17;;;4.47;;
7162;SDS011;3623;47.098;15.446;2023-07-29T02:16:10;5.10;;;4.23;;
7162;SDS011;3623;47.098;15.446;2023-07-29T02:18:40;6.00;;;4.30;;
7162;SDS011;3623;47.098;15.446;2023-07-29T02:21:07;6.13;;;4.47;;
7162;SDS011;3623;47.098;15.446;2023-07-29T02:23:34;5.17;;;4.77;;
7162;SDS011;3623;47.098;15.446;2023-07-29T02:26:01;5.23;;;4.13;;
7162;SDS011;3623;47.098;15.446;2023-07-29T02:28:29;5.20;;;4.47;;
7162;SDS011;3623;47.098;15.446;2023-07-29T02:31:12;5.00;;;4.60;;
7162;SDS011;3623;47.098;15.446;2023-07-29T02:33:41;4.80;;;4.30;;
7162;SDS011;3623;47.098;15.446;2023-07-29T02:36:11;3.90;;;3.60;;
7162;SDS011;3623;47.098;15.446;2023-07-29T02:38:39;6.50;;;4.07;;
7162;SDS011;3623;47.098;15.446;2023-07-29T02:41:07;5.57;;;4.97;;
7162;SDS011;3623;47.098;15.446;2023-07-29T02:43:35;4.77;;;4.43;;
7162;SDS011;3623;47.098;15.446;2023-07-29T02:46:02;7.87;;;4.57;;
7162;SDS011;3623;47.098;15.446;2023-07-29T02:48:31;4.43;;;4.03;;
7162;SDS011;3623;47.098;15.446;2023-07-29T02:50:58;4.77;;;4.37;;
7162;SDS011;3623;47.098;15.446;2023-07-29T02:53:25;4.63;;;4.33;;
7162;SDS011;3623;47.098;15.446;2023-07-29T02:55:52;5.07;;;4.67;;
7162;SDS011;3623;47.098;15.446;2023-07-29T02:58:20;4.60;;;4.20;;
7162;SDS011;3623;47.098;15.446;2023-07-29T03:00:47;7.33;;;4.50;;
7162;SDS011;3623;47.098;15.446;2023-07-29T03:03:14;4.43;;;3.60;;
7162;SDS011;3623;47.098;15.446;2023-07-29T03:05:42;4.40;;;4.00;;
7162;SDS011;3623;47.098;15.446;2023-07-29T03:08:10;6.40;;;4.70;;
7162;SDS011;3623;47.098;15.446;2023-07-29T03:10:38;5.43;;;4.93;;
7162;SDS011;3623;47.098;15.446;2023-07-29T03:13:05;5.23;;;3.90;;
7162;SDS011;3623;47.098;15.446;2023-07-29T03:15:32;6.93;;;3.90;;
7162;SDS011;3623;47.098;15.446;2023-07-29T03:18:00;4.10;;;3.80;;
7162;SDS011;3623;47.098;15.446;2023-07-29T03:20:27;5.07;;;4.27;;
7162;SDS011;3623;47.098;15.446;2023-07-29T03:22:56;4.70;;;4.23;;
7162;SDS011;3623;47.098;15.446;2023-07-29T03:25:23;4.40;;;4.00;;
7162;SDS011;3623;47.098;15.446;2023-07-29T03:27:50;5.00;;;4.50;;
7162;SDS011;3623;47.098;15.446;2023-07-29T03:30:19;5.07;;;4.57;;
7162;SDS011;3623;47.098;15.446;2023-07-29T03:32:47;6.70;;;4.27;;
7162;SDS011;3623;47.098;15.446;2023-07-29T03:35:15;4.90;;;4.40;;
7162;SDS011;3623;47.098;15.446;2023-07-29T03:37:42;5.23;;;4.63;;
7162;SDS011;3623;47.098;15.446;2023-07-29T03:40:11;5.67;;;4.33;;
7162;SDS011;3623;47.098;15.446;2023-07-29T03:42:38;5.30;;;4.80;;
7162;SDS011;3623;47.098;15.446;2023-07-29T03:45:06;5.50;;;4.80;;
7162;SDS011;3623;47.098;15.446;2023-07-29T03:47:34;7.43;;;4.73;;
7162;SDS011;3623;47.098;15.446;2023-07-29T03:50:02;4.50;;;4.10;;
7162;SDS011;3623;47.098;15.446;2023-07-29T03:52:29;4.57;;;4.10;;
7162;SDS011;3623;47.098;15.446;2023-07-29T03:54:56;5.33;;;4.47;;
7162;SDS011;3623;47.098;15.446;2023-07-29T03:57:25;4.80;;;4.40;;
7162;SDS011;3623;47.098;15.446;2023-07-29T03:59:52;4.30;;;3.97;;
7162;SDS011;3623;47.098;15.446;2023-07-29T04:02:19;3.93;;;3.60;;
7162;SDS011;3623;47.098;15.446;2023-07-29T04:04:47;4.50;;;4.10;;
7162;SDS011;3623;47.098;15.446;2023-07-29T04:07:14;4.30;;;3.70;;
7162;SDS011;3623;47.098;15.446;2023-07-29T04:09:41;4.60;;;4.33;;
7162;SDS011;3623;47.098;15.446;2023-07-29T04:12:09;4.60;;;4.20;;
7162;SDS011;3623;47.098;15.446;2023-07-29T04:14:38;4.47;;;4.10;;
7162;SDS011;3623;47.098;15.446;2023-07-29T04:17:05;4.80;;;4.40;;
7162;SDS011;3623;47.098;15.446;2023-07-29T04:19:33;4.70;;;4.30;;
7162;SDS011;3623;47.098;15.446;2023-07-29T04:22:00;4.43;;;4.13;;
7162;SDS011;3623;47.098;15.446;2023-07-29T04:24:27;8.13;;;4.70;;
7162;SDS011;3623;47.098;15.446;2023-07-29T04:26:55;4.37;;;3.97;;
7162;SDS011;3623;47.098;15.446;2023-07-29T04:29:22;3.67;;;3.40;;
7162;SDS011;3623;47.098;15.446;2023-07-29T04:31:50;4.03;;;3.63;;
7162;SDS011;3623;47.098;15.446;2023-07-29T04:34:18;3.80;;;3.50;;
7162;SDS011;3623;47.098;15.446;2023-07-29T04:36:45;4.40;;;4.00;;
7162;SDS011;3623;47.098;15.446;2023-07-29T04:39:12;4.60;;;4.20;;
7162;SDS011;3623;47.098;15.446;2023-07-29T04:41:40;4.80;;;4.40;;
7162;SDS011;3623;47.098;15.446;2023-07-29T04:44:07;7.00;;;4.07;;
7162;SDS011;3623;47.098;15.446;2023-07-29T04:46:35;4.93;;;4.50;;
7162;SDS011;3623;47.098;15.446;2023-07-29T04:49:04;3.87;;;3.57;;
7162;SDS011;3623;47.098;15.446;2023-07-29T04:51:31;6.70;;;4.70;;
7162;SDS011;3623;47.098;15.446;2023-07-29T04:53:58;4.60;;;4.20;;
7162;SDS011;3623;47.098;15.446;2023-07-29T04:56:26;5.13;;;3.60;;
7162;SDS011;3623;47.098;15.446;2023-07-29T04:58:53;6.20;;;4.33;;
7162;SDS011;3623;47.098;15.446;2023-07-29T05:01:20;4.40;;;4.00;;
7162;SDS011;3623;47.098;15.446;2023-07-29T05:03:47;6.07;;;4.40;;
7162;SDS011;3623;47.098;15.446;2023-07-29T05:06:16;4.67;;;4.30;;
7162;SDS011;3623;47.098;15.446;2023-07-29T05:08:43;4.23;;;3.87;;
7162;SDS011;3623;47.098;15.446;2023-07-29T05:11:10;4.70;;;4.17;;
7162;SDS011;3623;47.098;15.446;2023-07-29T05:13:37;3.97;;;3.67;;
7162;SDS011;3623;47.098;15.446;2023-07-29T05:16:04;3.53;;;3.27;;
7162;SDS011;3623;47.098;15.446;2023-07-29T05:18:32;4.60;;;4.20;;
7162;SDS011;3623;47.098;15.446;2023-07-29T05:20:59;5.00;;;4.50;;
7162;SDS011;3623;47.098;15.446;2023-07-29T05:23:27;4.43;;;4.13;;
7162;SDS011;3623;47.098;15.446;2023-07-29T05:25:54;4.73;;;4.10;;
7162;SDS011;3623;47.098;15.446;2023-07-29T05:28:21;5.53;;;5.03;;
7162;SDS011;3623;47.098;15.446;2023-07-29T05:30:49;4.10;;;3.67;;
7162;SDS011;3623;47.098;15.446;2023-07-29T05:33:16;4.00;;;3.70;;
7162;SDS011;3623;47.098;15.446;2023-07-29T05:35:43;4.67;;;4.30;;
7162;SDS011;3623;47.098;15.446;2023-07-29T05:38:12;4.47;;;4.07;;
7162;SDS011;3623;47.098;15.446;2023-07-29T05:40:41;4.90;;;4.50;;
7162;SDS011;3623;47.098;15.446;2023-07-29T05:43:08;4.50;;;3.97;;
7162;SDS011;3623;47.098;15.446;2023-07-29T05:45:36;12.23;;;3.53;;
7162;SDS011;3623;47.098;15.446;2023-07-29T05:48:03;7.13;;;4.03;;
7162;SDS011;3623;47.098;15.446;2023-07-29T05:50:32;5.10;;;4.43;;
7162;SDS011;3623;47.098;15.446;2023-07-29T05:52:59;4.87;;;4.57;;
7162;SDS011;3623;47.098;15.446;2023-07-29T05:55:27;4.77;;;4.47;;
7162;SDS011;3623;47.098;15.446;2023-07-29T05:57:55;4.43;;;3.63;;
7162;SDS011;3623;47.098;15.446;2023-07-29T06:00:23;5.03;;;4.63;;
7162;SDS011;3623;47.098;15.446;2023-07-29T06:02:50;4.90;;;4.50;;
7162;SDS011;3623;47.098;15.446;2023-07-29T06:05:17;6.27;;;4.37;;
7162;SDS011;3623;47.098;15.446;2023-07-29T06:07:44;4.37;;;3.70;;
7162;SDS011;3623;47.098;15.446;2023-07-29T06:10:13;5.53;;;4.93;;
7162;SDS011;3623;47.098;15.446;2023-07-29T06:12:43;4.50;;;4.20;;
7162;SDS011;3623;47.098;15.446;2023-07-29T06:15:12;4.63;;;4.33;;
7162;SDS011;3623;47.098;15.446;2023-07-29T06:17:39;6.50;;;4.07;;
7162;SDS011;3623;47.098;15.446;2023-07-29T06:20:07;4.60;;;4.20;;
7162;SDS011;3623;47.098;15.446;2023-07-29T06:22:35;3.83;;;3.60;;
7162;SDS011;3623;47.098;15.446;2023-07-29T06:25:02;4.30;;;3.50;;
7162;SDS011;3623;47.098;15.446;2023-07-29T06:27:30;6.40;;;4.00;;
7162;SDS011;3623;47.098;15.446;2023-07-29T06:29:58;5.40;;;4.63;;
7162;SDS011;3623;47.098;15.446;2023-07-29T06:32:26;4.90;;;3.37;;
7162;SDS011;3623;47.098;15.446;2023-07-29T06:34:53;5.30;;;4.80;;
7162;SDS011;3623;47.098;15.446;2023-07-29T06:37:20;5.47;;;4.07;;
7162;SDS011;3623;47.098;15.446;2023-07-29T06:39:48;4.50;;;4.10;;
7162;SDS011;3623;47.098;15.446;2023-07-29T06:42:15;4.03;;;3.67;;
7162;SDS011;3623;47.098;15.446;2023-07-29T06:44:42;3.17;;;2.97;;
7162;SDS011;3623;47.098;15.446;2023-07-29T06:47:11;4.73;;;4.33;;
7162;SDS011;3623;47.098;15.446;2023-07-29T06:49:39;4.10;;;3.73;;
7162;SDS011;3623;47.098;15.446;2023-07-29T06:52:06;3.87;;;3.60;;
7162;SDS011;3623;47.098;15.446;2023-07-29T06:54:34;3.80;;;3.50;;
7162;SDS011;3623;47.098;15.446;2023-07-29T06:57:01;4.33;;;4.00;;
7162;SDS011;3623;47.098;15.446;2023-07-29T06:59:28;7.00;;;4.17;;
7162;SDS011;3623;47.098;15.446;2023-07-29T07:01:56;3.97;;;3.30;;
7162;SDS011;3623;47.098;15.446;2023-07-29T07:04:23;4.90;;;4.40;;
7162;SDS011;3623;47.098;15.446;2023-07-29T07:06:53;3.93;;;3.60;;
7162;SDS011;3623;47.098;15.446;2023-07-29T07:09:21;3.90;;;3.60;;
7162;SDS011;3623;47.098;15.446;2023-07-29T07:11:48;3.87;;;3.67;;
7162;SDS011;3623;47.098;15.446;2023-07-29T07:14:15;3.53;;;3.23;;
7162;SDS011;3623;47.098;15.446;2023-07-29T07:16:42;4.03;;;3.73;;
7162;SDS011;3623;47.098;15.446;2023-07-29T07:19:10;3.90;;;3.60;;
7162;SDS011;3623;47.098;15.446;2023-07-29T07:21:37;5.83;;;3.87;;
7162;SDS011;3623;47.098;15.446;2023-07-29T07:24:06;4.80;;;4.17;;
7162;SDS011;3623;47.098;15.446;2023-07-29T07:26:34;4.07;;;3.60;;
7162;SDS011;3623;47.098;15.446;2023-07-29T07:29:01;4.73;;;4.43;;
7162;SDS011;3623;47.098;15.446;2023-07-29T07:31:28;4.93;;;4.27;;
7162;SDS011;3623;47.098;15.446;2023-07-29T07:33:59;3.87;;;3.57;;
7162;SDS011;3623;47.098;15.446;2023-07-29T07:36:27;4.17;;;3.87;;
7162;SDS011;3623;47.098;15.446;2023-07-29T07:38:55;5.57;;;4.27;;
7162;SDS011;3623;47.098;15.446;2023-07-29T07:41:23;5.17;;;4.30;;
7162;SDS011;3623;47.098;15.446;2023-07-29T07:43:51;4.30;;;3.90;;
7162;SDS011;3623;47.098;15.446;2023-07-29T07:46:18;5.70;;;3.90;;
7162;SDS011;3623;47.098;15.446;2023-07-29T07:48:45;4.40;;;3.70;;
7162;SDS011;3623;47.098;15.446;2023-07-29T07:51:12;3.33;;;3.03;;
7162;SDS011;3623;47.098;15.446;2023-07-29T07:53:40;3.63;;;3.43;;
7162;SDS011;3623;47.098;15.446;2023-07-29T07:56:07;3.53;;;3.23;;
7162;SDS011;3623;47.098;15.446;2023-07-29T07:58:36;3.83;;;3.53;;
7162;SDS011;3623;47.098;15.446;2023-07-29T08:01:03;3.83;;;3.50;;
7162;SDS011;3623;47.098;15.446;2023-07-29T08:03:31;5.30;;;3.40;;
7162;SDS011;3623;47.098;15.446;2023-07-29T08:05:58;4.80;;;4.30;;
7162;SDS011;3623;47.098;15.446;2023-07-29T08:08:26;3.83;;;3.53;;
7162;SDS011;3623;47.098;15.446;2023-07-29T08:10:53;3.87;;;3.57;;
7162;SDS011;3623;47.098;15.446;2023-07-29T08:13:21;2.80;;;2.70;;
7162;SDS011;3623;47.098;15.446;2023-07-29T08:15:51;3.30;;;3.10;;
7162;SDS011;3623;47.098;15.446;2023-07-29T08:18:19;3.47;;;3.20;;
7162;SDS011;3623;47.098;15.446;2023-07-29T08:20:52;3.57;;;3.33;;
7162;SDS011;3623;47.098;15.446;2023-07-29T08:23:20;5.10;;;3.20;;
7162;SDS011;3623;47.098;15.446;2023-07-29T08:25:52;4.03;;;3.33;;
7162;SDS011;3623;47.098;15.446;2023-07-29T08:28:21;3.53;;;3.23;;
7162;SDS011;3623;47.098;15.446;2023-07-29T08:30:49;3.03;;;2.83;;
7162;SDS011;3623;47.098;15.446;2023-07-29T08:33:17;4.50;;;3.67;;
7162;SDS011;3623;47.098;15.446;2023-07-29T08:35:44;3.80;;;3.30;;
7162;SDS011;3623;47.098;15.446;2023-07-29T08:38:11;3.37;;;3.17;;
7162;SDS011;3623;47.098;15.446;2023-07-29T08:40:45;3.80;;;3.50;;
7162;SDS011;3623;47.098;15.446;2023-07-29T08:43:19;4.00;;;3.60;;
7162;SDS011;3623;47.098;15.446;2023-07-29T08:45:51;8.37;;;3.07;;
7162;SDS011;3623;47.098;15.446;2023-07-29T08:48:19;4.20;;;3.73;;
7162;SDS011;3623;47.098;15.446;2023-07-29T08:50:53;4.03;;;3.73;;
7162;SDS011;3623;47.098;15.446;2023-07-29T08:53:20;3.27;;;2.93;;
7162;SDS011;3623;47.098;15.446;2023-07-29T08:55:48;3.83;;;3.60;;
7162;SDS011;3623;47.098;15.446;2023-07-29T08:58:15;4.40;;;3.30;;
7162;SDS011;3623;47.098;15.446;2023-07-29T09:00:43;7.27;;;3.93;;
7162;SDS011;3623;47.098;15.446;2023-07-29T09:03:12;3.30;;;3.00;;
7162;SDS011;3623;47.098;15.446;2023-07-29T09:05:39;3.63;;;3.33;;
7162;SDS011;3623;47.098;15.446;2023-07-29T09:08:06;4.17;;;3.40;;
7162;SDS011;3623;47.098;15.446;2023-07-29T09:10:35;3.70;;;2.80;;
7162;SDS011;3623;47.098;15.446;2023-07-29T09:13:03;3.50;;;2.97;;
7162;SDS011;3623;47.098;15.446;2023-07-29T09:15:32;3.13;;;2.80;;
7162;SDS011;3623;47.098;15.446;2023-07-29T09:18:08;2.90;;;2.70;;
7162;SDS011;3623;47.098;15.446;2023-07-29T09:20:37;2.70;;;2.50;;
7162;SDS011;3623;47.098;15.446;2023-07-29T09:23:07;3.40;;;3.10;;
7162;SDS011;3623;47.098;15.446;2023-07-29T09:25:35;2.40;;;2.30;;
7162;SDS011;3623;47.098;15.446;2023-07-29T09:28:07;8.60;;;4.40;;
7162;SDS011;3623;47.098;15.446;2023-07-29T09:30:36;3.27;;;3.07;;
7162;SDS011;3623;47.098;15.446;2023-07-29T09:33:03;3.30;;;3.10;;
7162;SDS011;3623;47.098;15.446;2023-07-29T09:35:32;3.83;;;3.30;;
7162;SDS011;3623;47.098;15.446;2023-07-29T09:38:01;3.53;;;3.33;;
7162;SDS011;3623;47.098;15.446;2023-07-29T09:40:33;5.10;;;4.00;;
7162;SDS011;3623;47.098;15.446;2023-07-29T09:43:02;3.10;;;2.90;;
7162;SDS011;3623;47.098;15.446;2023-07-29T09:45:32;2.90;;;2.70;;
7162;SDS011;3623;47.098;15.446;2023-07-29T09:48:01;2.40;;;2.30;;
7162;SDS011;3623;47.098;15.446;2023-07-29T09:50:30;4.83;;;3.00;;
7162;SDS011;3623;47.098;15.446;2023-07-29T09:52:57;2.40;;;2.20;;
7162;SDS011;3623;47.098;15.446;2023-07-29T09:55:26;2.73;;;2.40;;
7162;SDS011;3623;47.098;15.446;2023-07-29T09:57:54;3.40;;;2.37;;
7162;SDS011;3623;47.098;15.446;2023-07-29T10:00:22;3.00;;;2.73;;
7162;SDS011;3623;47.098;15.446;2023-07-29T10:02:50;2.93;;;2.73;;
7162;SDS011;3623;47.098;15.446;2023-07-29T10:05:20;2.77;;;2.50;;
7162;SDS011;3623;47.098;15.446;2023-07-29T10:07:49;3.27;;;3.07;;
7162;SDS011;3623;47.098;15.446;2023-07-29T10:10:17;2.60;;;2.40;;
7162;SDS011;3623;47.098;15.446;2023-07-29T10:12:46;2.77;;;2.57;;
7162;SDS011;3623;47.098;15.446;2023-07-29T10:15:13;3.23;;;2.87;;
7162;SDS011;3623;47.098;15.446;2023-07-29T10:17:40;2.80;;;2.60;;
7162;SDS011;3623;47.098;15.446;2023-07-29T10:20:08;2.67;;;2.47;;
7162;SDS011;3623;47.098;15.446;2023-07-29T10:22:37;2.93;;;2.73;;
7162;SDS011;3623;47.098;15.446;2023-07-29T10:25:07;3.00;;;2.50;;
7162;SDS011;3623;47.098;15.446;2023-07-29T10:27:41;3.00;;;2.80;;
7162;SDS011;3623;47.098;15.446;2023-07-29T10:30:23;2.53;;;2.33;;
7162;SDS011;3623;47.098;15.446;2023-07-29T10:32:51;2.90;;;2.70;;
7162;SDS011;3623;47.098;15.446;2023-07-29T10:35:19;3.00;;;2.80;;
7162;SDS011;3623;47.098;15.446;2023-07-29T10:37:46;3.40;;;3.10;;
7162;SDS011;3623;47.098;15.446;2023-07-29T10:40:16;2.90;;;2.70;;
7162;SDS011;3623;47.098;15.446;2023-07-29T10:45:27;2.70;;;2.53;;
7162;SDS011;3623;47.098;15.446;2023-07-29T10:48:05;3.30;;;3.10;;
7162;SDS011;3623;47.098;15.446;2023-07-29T10:50:34;2.50;;;2.40;;
7162;SDS011;3623;47.098;15.446;2023-07-29T10:53:01;4.40;;;3.30;;
7162;SDS011;3623;47.098;15.446;2023-07-29T10:55:29;3.70;;;3.40;;
7162;SDS011;3623;47.098;15.446;2023-07-29T10:58:08;2.40;;;2.30;;
7162;SDS011;3623;47.098;15.446;2023-07-29T11:00:39;3.17;;;2.97;;
7162;SDS011;3623;47.098;15.446;2023-07-29T11:03:08;3.17;;;2.97;;
7162;SDS011;3623;47.098;15.446;2023-07-29T11:05:42;3.50;;;3.20;;
7162;SDS011;3623;47.098;15.446;2023-07-29T11:08:18;3.57;;;3.33;;
7162;SDS011;3623;47.098;15.446;2023-07-29T11:10:59;2.93;;;2.80;;
7162;SDS011;3623;47.098;15.446;2023-07-29T11:13:30;2.50;;;2.40;;
7162;SDS011;3623;47.098;15.446;2023-07-29T11:16:00;3.00;;;2.80;;
7162;SDS011;3623;47.098;15.446;2023-07-29T11:18:30;2.53;;;2.43;;
7162;SDS011;3623;47.098;15.446;2023-07-29T11:20:59;3.30;;;3.00;;
7162;SDS011;3623;47.098;15.446;2023-07-29T11:23:30;3.00;;;2.77;;
7162;SDS011;3623;47.098;15.446;2023-07-29T11:25:58;3.00;;;2.77;;
7162;SDS011;3623;47.098;15.446;2023-07-29T11:28:26;2.57;;;2.37;;
7162;SDS011;3623;47.098;15.446;2023-07-29T11:30:54;2.23;;;2.13;;
7162;SDS011;3623;47.098;15.446;2023-07-29T11:33:24;2.57;;;2.37;;
7162;SDS011;3623;47.098;15.446;2023-07-29T11:35:53;2.50;;;2.40;;
7162;SDS011;3623;47.098;15.446;2023-07-29T11:38:21;2.90;;;2.70;;
7162;SDS011;3623;47.098;15.446;2023-07-29T11:40:59;2.27;;;2.17;;
7162;SDS011;3623;47.098;15.446;2023-07-29T11:43:28;3.00;;;2.23;;
7162;SDS011;3623;47.098;15.446;2023-07-29T11:45:55;2.30;;;2.20;;
7162;SDS011;3623;47.098;15.446;2023-07-29T11:48:30;2.17;;;2.07;;
7162;SDS011;3623;47.098;15.446;2023-07-29T11:50:58;2.60;;;2.40;;
7162;SDS011;3623;47.098;15.446;2023-07-29T11:53:26;2.27;;;2.13;;
7162;SDS011;3623;47.098;15.446;2023-07-29T11:55:55;2.40;;;2.30;;
7162;SDS011;3623;47.098;15.446;2023-07-29T11:58:22;2.53;;;2.40;;
7162;SDS011;3623;47.098;15.446;2023-07-29T12:00:50;2.23;;;2.10;;
7162;SDS011;3623;47.098;15.446;2023-07-29T12:03:18;2.80;;;2.60;;
7162;SDS011;3623;47.098;15.446;2023-07-29T12:05:47;2.80;;;2.60;;
7162;SDS011;3623;47.098;15.446;2023-07-29T12:08:15;2.37;;;2.27;;
7162;SDS011;3623;47.098;15.446;2023-07-29T12:10:42;2.30;;;2.20;;
7162;SDS011;3623;47.098;15.446;2023-07-29T12:13:09;2.50;;;2.40;;
7162;SDS011;3623;47.098;15.446;2023-07-29T12:15:37;2.20;;;2.10;;
7162;SDS011;3623;47.098;15.446;2023-07-29T12:18:06;2.07;;;1.97;;
7162;SDS011;3623;47.098;15.446;2023-07-29T12:20:33;2.23;;;2.10;;
7162;SDS011;3623;47.098;15.446;2023-07-29T12:23:02;2.43;;;2.33;;
7162;SDS011;3623;47.098;15.446;2023-07-29T12:25:31;1.87;;;1.77;;
7162;SDS011;3623;47.098;15.446;2023-07-29T12:28:01;3.10;;;2.90;;
7162;SDS011;3623;47.098;15.446;2023-07-29T12:30:29;2.13;;;2.03;;
7162;SDS011;3623;47.098;15.446;2023-07-29T12:32:57;3.30;;;3.00;;
7162;SDS011;3623;47.098;15.446;2023-07-29T12:35:24;2.67;;;2.50;;
7162;SDS011;3623;47.098;15.446;2023-07-29T12:37:59;3.03;;;2.83;;
7162;SDS011;3623;47.098;15.446;2023-07-29T12:40:28;3.40;;;2.53;;
7162;SDS011;3623;47.098;15.446;2023-07-29T12:42:56;2.40;;;2.30;;
7162;SDS011;3623;47.098;15.446;2023-07-29T12:45:23;3.37;;;2.93;;
7162;SDS011;3623;47.098;15.446;2023-07-29T12:47:52;3.57;;;3.27;;
7162;SDS011;3623;47.098;15.446;2023-07-29T12:50:19;2.90;;;2.70;;
7162;SDS011;3623;47.098;15.446;2023-07-29T12:52:47;3.70;;;3.40;;
7162;SDS011;3623;47.098;15.446;2023-07-29T12:55:16;2.90;;;2.70;;
7162;SDS011;3623;47.098;15.446;2023-07-29T12:57:43;3.30;;;2.83;;
7162;SDS011;3623;47.098;15.446;2023-07-29T13:00:10;5.30;;;2.60;;
7162;SDS011;3623;47.098;15.446;2023-07-29T13:02:38;2.90;;;2.80;;
7162;SDS011;3623;47.098;15.446;2023-07-29T13:05:07;2.37;;;2.23;;
7162;SDS011;3623;47.098;15.446;2023-07-29T13:07:36;2.73;;;2.53;;
7162;SDS011;3623;47.098;15.446;2023-07-29T13:10:03;2.83;;;2.63;;
7162;SDS011;3623;47.098;15.446;2023-07-29T13:12:33;2.87;;;2.67;;
7162;SDS011;3623;47.098;15.446;2023-07-29T13:15:00;3.30;;;3.00;;
7162;SDS011;3623;47.098;15.446;2023-07-29T13:17:27;4.63;;;2.57;;
7162;SDS011;3623;47.098;15.446;2023-07-29T13:19:54;2.23;;;2.13;;
7162;SDS011;3623;47.098;15.446;2023-07-29T13:22:21;3.27;;;3.07;;
7162;SDS011;3623;47.098;15.446;2023-07-29T13:24:48;2.67;;;2.57;;
7162;SDS011;3623;47.098;15.446;2023-07-29T13:27:15;2.60;;;2.40;;
7162;SDS011;3623;47.098;15.446;2023-07-29T13:29:44;2.37;;;2.27;;
7162;SDS011;3623;47.098;15.446;2023-07-29T13:32:12;1.93;;;1.83;;
7162;SDS011;3623;47.098;15.446;2023-07-29T13:34:39;2.30;;;2.17;;
7162;SDS011;3623;47.098;15.446;2023-07-29T13:37:06;2.17;;;1.83;;
7162;SDS011;3623;47.098;15.446;2023-07-29T13:39:33;2.60;;;2.50;;
7162;SDS011;3623;47.098;15.446;2023-07-29T13:42:00;2.10;;;2.00;;
7162;SDS011;3623;47.098;15.446;2023-07-29T13:44:30;2.40;;;1.87;;
7162;SDS011;3623;47.098;15.446;2023-07-29T13:46:59;2.60;;;2.50;;
7162;SDS011;3623;47.098;15.446;2023-07-29T13:49:26;3.40;;;2.07;;
7162;SDS011;3623;47.098;15.446;2023-07-29T13:51:53;3.00;;;2.77;;
7162;SDS011;3623;47.098;15.446;2023-07-29T13:54:20;2.33;;;2.23;;
7162;SDS011;3623;47.098;15.446;2023-07-29T13:56:47;3.17;;;2.93;;
7162;SDS011;3623;47.098;15.446;2023-07-29T13:59:14;2.40;;;2.30;;
7162;SDS011;3623;47.098;15.446;2023-07-29T14:01:41;2.30;;;2.20;;
7162;SDS011;3623;47.098;15.446;2023-07-29T14:04:10;3.53;;;2.50;;
7162;SDS011;3623;47.098;15.446;2023-07-29T14:06:37;2.63;;;2.53;;
7162;SDS011;3623;47.098;15.446;2023-07-29T14:09:04;2.60;;;2.50;;
7162;SDS011;3623;47.098;15.446;2023-07-29T14:11:31;3.10;;;2.80;;
7162;SDS011;3623;47.098;15.446;2023-07-29T14:13:58;2.70;;;2.50;;
7162;SDS011;3623;47.098;15.446;2023-07-29T14:16:25;2.30;;;2.20;;
7162;SDS011;3623;47.098;15.446;2023-07-29T14:18:52;2.80;;;2.60;;
7162;SDS011;3623;47.098;15.446;2023-07-29T14:21:21;3.37;;;3.17;;
7162;SDS011;3623;47.098;15.446;2023-07-29T14:23:48;2.50;;;2.40;;
7162;SDS011;3623;47.098;15.446;2023-07-29T14:26:15;3.03;;;2.83;;
7162;SDS011;3623;47.098;15.446;2023-07-29T14:28:42;3.17;;;2.97;;
7162;SDS011;3623;47.098;15.446;2023-07-29T14:31:09;3.13;;;2.93;;
7162;SDS011;3623;47.098;15.446;2023-07-29T14:33:37;2.63;;;2.53;;
7162;SDS011;3623;47.098;15.446;2023-07-29T14:36:04;2.57;;;2.47;;
7162;SDS011;3623;47.098;15.446;2023-07-29T14:38:34;2.83;;;2.63;;
7162;SDS011;3623;47.098;15.446;2023-07-29T14:41:01;2.63;;;2.53;;
7162;SDS011;3623;47.098;15.446;2023-07-29T14:43:29;2.53;;;2.33;;
7162;SDS011;3623;47.098;15.446;2023-07-29T14:45:56;3.07;;;2.70;;
7162;SDS011;3623;47.098;15.446;2023-07-29T14:48:23;2.37;;;2.17;;
7162;SDS011;3623;47.098;15.446;2023-07-29T14:50:51;2.90;;;2.70;;
7162;SDS011;3623;47.098;15.446;2023-07-29T14:53:18;2.53;;;2.33;;
7162;SDS011;3623;47.098;15.446;2023-07-29T14:55:47;2.60;;;2.50;;
7162;SDS011;3623;47.098;15.446;2023-07-29T14:58:14;2.80;;;2.70;;
7162;SDS011;3623;47.098;15.446;2023-07-29T15:00:41;2.47;;;2.37;;
7162;SDS011;3623;47.098;15.446;2023-07-29T15:03:08;2.47;;;2.27;;
7162;SDS011;3623;47.098;15.446;2023-07-29T15:05:35;3.43;;;2.50;;
7162;SDS011;3623;47.098;15.446;2023-07-29T15:08:03;4.73;;;2.90;;
7162;SDS011;3623;47.098;15.446;2023-07-29T15:10:30;3.07;;;2.87;;